createdAt,value
2019-03-06T00:00:08.810Z,100893.00
2019-03-06T00:02:36.925Z,100891.94
2019-03-06T00:05:05.799Z,100891.68
2019-03-06T00:07:33.909Z,100887.20
2019-03-06T00:10:01.968Z,100885.33
2019-03-06T00:12:30.061Z,100887.42
2019-03-06T00:14:58.179Z,100883.59
2019-03-06T00:17:26.367Z,100882.27
2019-03-06T00:19:54.746Z,100881.67
2019-03-06T00:22:23.422Z,100880.52
2019-03-06T00:24:51.576Z,100886.91
2019-03-06T00:27:19.690Z,100891.70
2019-03-06T00:29:47.840Z,100888.54
2019-03-06T00:32:16.154Z,100891.77
2019-03-06T00:34:44.507Z,100887.56
2019-03-06T00:37:12.930Z,100887.66
2019-03-06T00:39:49.223Z,100895.81
2019-03-06T00:42:17.531Z,100897.73
2019-03-06T00:44:46.382Z,100892.30
2019-03-06T00:47:14.494Z,100901.42
2019-03-06T00:49:42.690Z,100899.62
2019-03-06T00:52:10.778Z,100897.55
2019-03-06T00:54:39.011Z,100896.47
2019-03-06T00:57:07.119Z,100898.91
2019-03-06T00:59:35.211Z,100901.38
2019-03-06T01:02:04.161Z,100897.31
2019-03-06T01:04:32.227Z,100894.40
2019-03-06T01:07:00.319Z,100890.23
2019-03-06T01:09:28.445Z,100891.59
2019-03-06T01:11:56.542Z,100890.63
2019-03-06T01:14:25.048Z,100886.59
2019-03-06T01:16:53.376Z,100882.50
2019-03-06T01:19:21.610Z,100878.58
2019-03-06T01:21:49.906Z,100883.48
2019-03-06T01:24:18.397Z,100876.55
2019-03-06T01:26:46.437Z,100880.34
2019-03-06T01:29:14.529Z,100882.73
2019-03-06T01:31:43.176Z,100880.52
2019-03-06T01:34:30.943Z,100875.67
2019-03-06T01:37:21.583Z,100869.42
2019-03-06T01:40:12.197Z,100869.06
2019-03-06T01:42:49.281Z,100868.08
2019-03-06T01:45:17.518Z,100873.05
2019-03-06T01:47:45.634Z,100858.53
2019-03-06T01:50:14.704Z,100866.98
2019-03-06T01:52:43.179Z,100869.58
2019-03-06T01:55:13.536Z,100868.77
2019-03-06T01:57:41.768Z,100867.33
2019-03-06T02:00:15.814Z,100865.94
2019-03-06T02:02:44.283Z,100858.29
2019-03-06T02:05:13.088Z,100849.93
2019-03-06T02:07:42.013Z,100846.61
2019-03-06T02:10:11.494Z,100847.91
2019-03-06T02:12:39.593Z,100846.87
2019-03-06T02:15:09.783Z,100847.39
2019-03-06T02:17:38.956Z,100846.97
2019-03-06T02:20:09.846Z,100836.48
2019-03-06T02:22:37.993Z,100836.10
2019-03-06T02:25:06.620Z,100828.00
2019-03-06T02:28:54.647Z,100824.13
2019-03-06T02:31:22.878Z,100826.09
2019-03-06T02:33:52.154Z,100821.45
2019-03-06T02:36:20.518Z,100820.65
2019-03-06T02:38:48.988Z,100816.20
2019-03-06T02:41:17.521Z,100814.59
2019-03-06T02:43:45.632Z,100812.03
2019-03-06T02:46:13.740Z,100805.91
2019-03-06T02:48:41.907Z,100806.52
2019-03-06T02:51:10.377Z,100804.44
2019-03-06T02:53:38.747Z,100803.90
2019-03-06T02:56:06.867Z,100806.47
2019-03-06T02:58:44.529Z,100796.59
2019-03-06T03:01:25.090Z,100796.00
2019-03-06T03:04:07.414Z,100790.27
2019-03-06T03:06:39.459Z,100789.41
2019-03-06T03:09:16.337Z,100782.20
2019-03-06T03:11:44.716Z,100777.17
2019-03-06T03:14:12.847Z,100781.53
2019-03-06T03:16:40.956Z,100774.57
2019-03-06T03:19:09.951Z,100764.47
2019-03-06T03:21:38.070Z,100759.23
2019-03-06T03:24:06.202Z,100754.07
2019-03-06T03:26:34.549Z,100753.84
2019-03-06T03:29:02.730Z,100759.56
2019-03-06T03:31:30.810Z,100765.98
2019-03-06T03:33:59.044Z,100763.66
2019-03-06T03:36:27.406Z,100762.09
2019-03-06T03:38:55.524Z,100757.14
2019-03-06T03:41:23.778Z,100756.61
2019-03-06T03:43:52.628Z,100760.87
2019-03-06T03:46:20.688Z,100760.78
2019-03-06T03:48:48.887Z,100744.05
2019-03-06T03:51:17.350Z,100741.32
2019-03-06T03:53:45.467Z,100733.64
2019-03-06T03:56:14.464Z,100726.17
2019-03-06T03:58:42.579Z,100729.44
2019-03-06T04:01:10.701Z,100725.66
2019-03-06T04:03:38.992Z,100730.39
2019-03-06T04:06:07.132Z,100734.95
2019-03-06T04:08:35.869Z,100733.38
2019-03-06T04:11:04.112Z,100738.84
2019-03-06T04:13:32.321Z,100725.63
2019-03-06T04:16:00.425Z,100720.81
2019-03-06T04:18:28.507Z,100725.31
2019-03-06T04:20:56.621Z,100730.28
2019-03-06T04:23:24.689Z,100722.89
2019-03-06T04:25:52.852Z,100721.73
2019-03-06T04:28:20.927Z,100721.37
2019-03-06T04:30:52.056Z,100718.61
2019-03-06T04:33:20.221Z,100720.28
2019-03-06T04:35:48.946Z,100710.98
2019-03-06T04:38:17.319Z,100710.44
2019-03-06T04:40:45.426Z,100715.06
2019-03-06T04:43:13.515Z,100711.97
2019-03-06T04:45:41.601Z,100715.47
2019-03-06T04:48:10.093Z,100708.92
2019-03-06T04:50:38.888Z,100717.45
2019-03-06T04:53:07.062Z,100707.67
2019-03-06T04:55:35.433Z,100708.70
2019-03-06T04:58:04.253Z,100710.70
2019-03-06T05:00:32.324Z,100699.01
2019-03-06T05:03:00.498Z,100700.59
2019-03-06T05:05:28.601Z,100698.13
2019-03-06T05:07:56.801Z,100699.16
2019-03-06T05:10:24.927Z,100701.61
2019-03-06T05:12:53.404Z,100697.56
2019-03-06T05:15:21.949Z,100704.96
2019-03-06T05:17:55.580Z,100705.22
2019-03-06T05:20:23.781Z,100697.01
2019-03-06T05:22:51.898Z,100692.94
2019-03-06T05:25:20.190Z,100694.92
2019-03-06T05:27:48.332Z,100694.00
2019-03-06T05:30:17.526Z,100688.66
2019-03-06T05:32:46.297Z,100690.00
2019-03-06T05:35:36.370Z,100682.13
2019-03-06T05:38:18.255Z,100679.12
2019-03-06T05:40:46.314Z,100671.73
2019-03-06T05:43:14.394Z,100667.05
2019-03-06T05:45:42.623Z,100657.21
2019-03-06T05:48:10.844Z,100671.17
2019-03-06T05:50:39.652Z,100650.05
2019-03-06T05:53:07.766Z,100654.50
2019-03-06T05:55:36.079Z,100652.59
2019-03-06T05:58:04.874Z,100647.42
2019-03-06T06:00:33.055Z,100647.74
2019-03-06T06:03:01.247Z,100655.80
2019-03-06T06:05:29.576Z,100646.95
2019-03-06T06:07:57.687Z,100642.20
2019-03-06T06:10:26.255Z,100652.27
2019-03-06T06:12:54.458Z,100642.10
2019-03-06T06:15:22.535Z,100640.03
2019-03-06T06:17:51.378Z,100639.39
2019-03-06T06:20:19.431Z,100645.30
2019-03-06T06:22:53.165Z,100644.43
2019-03-06T06:25:21.571Z,100631.41
2019-03-06T06:27:49.748Z,100635.75
2019-03-06T06:30:19.059Z,100642.50
2019-03-06T06:32:47.212Z,100634.41
2019-03-06T06:35:15.402Z,100629.73
2019-03-06T06:37:43.553Z,100628.44
2019-03-06T06:40:11.631Z,100619.72
2019-03-06T06:42:40.691Z,100620.28
2019-03-06T06:45:08.889Z,100621.95
2019-03-06T06:48:06.402Z,100608.28
2019-03-06T06:50:34.620Z,100605.42
2019-03-06T06:53:55.189Z,100593.49
2019-03-06T06:57:28.164Z,100580.39
2019-03-06T07:01:02.783Z,100577.84
2019-03-06T07:04:48.662Z,100571.49
2019-03-06T07:07:35.427Z,100568.56
2019-03-06T07:10:26.790Z,100559.41
2019-03-06T07:13:04.591Z,100559.56
2019-03-06T07:16:10.739Z,100554.70
2019-03-06T07:18:57.277Z,100555.52
2019-03-06T07:21:41.815Z,100552.88
2019-03-06T07:24:21.983Z,100558.11
2019-03-06T07:27:17.653Z,100560.29
2019-03-06T07:29:58.288Z,100551.13
2019-03-06T07:32:37.906Z,100553.18
2019-03-06T07:36:38.639Z,100546.09
2019-03-06T07:39:22.383Z,100535.40
2019-03-06T07:42:22.155Z,100535.69
2019-03-06T07:46:05.765Z,100535.77
2019-03-06T07:48:51.793Z,100533.97
2019-03-06T07:51:42.338Z,100513.91
2019-03-06T07:54:20.733Z,100516.76
2019-03-06T07:56:59.384Z,100521.28
2019-03-06T07:59:27.618Z,100528.98
2019-03-06T08:02:03.867Z,100533.14
2019-03-06T08:04:32.012Z,100530.50
2019-03-06T08:07:04.969Z,100515.43
2019-03-06T08:09:33.219Z,100511.31
2019-03-06T08:12:19.919Z,100514.73
2019-03-06T08:15:07.722Z,100497.14
2019-03-06T08:17:53.983Z,100496.94
2019-03-06T08:20:50.561Z,100491.16
2019-03-06T08:23:47.658Z,100484.70
2019-03-06T08:26:15.907Z,100487.80
2019-03-06T08:28:44.000Z,100473.20
2019-03-06T08:31:18.065Z,100468.55
2019-03-06T08:33:46.325Z,100466.52
2019-03-06T08:36:14.541Z,100467.33
2019-03-06T08:38:42.641Z,100455.81
2019-03-06T08:41:10.773Z,100452.94
2019-03-06T08:43:38.933Z,100446.91
2019-03-06T08:46:35.624Z,100447.22
2019-03-06T08:49:33.259Z,100449.19
2019-03-06T08:52:24.428Z,100452.32
2019-03-06T08:55:24.713Z,100442.41
2019-03-06T08:58:21.344Z,100438.19
2019-03-06T09:01:10.238Z,100444.75
2019-03-06T09:04:03.999Z,100452.22
2019-03-06T09:06:50.740Z,100449.98
2019-03-06T09:09:42.434Z,100445.59
2019-03-06T09:12:22.219Z,100436.22
2019-03-06T09:15:12.586Z,100438.69
2019-03-06T09:17:56.655Z,100437.88
2019-03-06T09:20:50.415Z,100422.84
2019-03-06T09:23:29.945Z,100422.16
2019-03-06T09:26:17.772Z,100415.58
2019-03-06T09:29:08.379Z,100401.55
2019-03-06T09:31:48.504Z,100391.11
2019-03-06T09:34:36.178Z,100390.59
2019-03-06T09:37:42.987Z,100387.42
2019-03-06T09:40:36.630Z,100381.14
2019-03-06T09:43:23.562Z,100375.05
2019-03-06T09:46:09.102Z,100371.45
2019-03-06T09:49:11.306Z,100380.51
2019-03-06T09:51:40.899Z,100357.97
2019-03-06T09:54:32.066Z,100356.87
2019-03-06T09:57:20.748Z,100350.22
2019-03-06T10:00:27.052Z,100346.76
2019-03-06T10:03:30.090Z,100339.13
2019-03-06T10:06:04.448Z,100334.44
2019-03-06T10:08:56.333Z,100332.56
2019-03-06T10:11:47.300Z,100322.22
2019-03-06T10:14:20.314Z,100318.43
2019-03-06T10:17:03.159Z,100314.14
2019-03-06T10:19:39.096Z,100315.91
2019-03-06T10:22:07.151Z,100320.67
2019-03-06T10:24:35.288Z,100311.47
2019-03-06T10:27:03.586Z,100312.57
2019-03-06T10:29:32.072Z,100319.96
2019-03-06T10:32:00.229Z,100305.51
2019-03-06T10:34:28.615Z,100292.41
2019-03-06T10:36:56.840Z,100285.35
2019-03-06T10:39:25.120Z,100291.97
2019-03-06T10:41:53.533Z,100277.89
2019-03-06T10:44:28.822Z,100275.40
2019-03-06T10:46:51.631Z,100272.08
2019-03-06T10:49:19.829Z,100259.14
2019-03-06T10:51:48.411Z,100252.38
2019-03-06T10:54:16.622Z,100243.68
2019-03-06T10:56:45.132Z,100239.94
2019-03-06T10:59:14.674Z,100234.49
2019-03-06T11:01:42.878Z,100238.14
2019-03-06T11:04:33.946Z,100232.56
2019-03-06T11:07:02.164Z,100228.31
2019-03-06T11:09:30.524Z,100238.16
2019-03-06T11:11:59.213Z,100236.98
2019-03-06T11:14:28.205Z,100229.24
2019-03-06T11:16:56.695Z,100227.95
2019-03-06T11:19:25.273Z,100211.73
2019-03-06T11:21:53.497Z,100209.19
2019-03-06T11:24:21.689Z,100206.16
2019-03-06T11:26:50.126Z,100206.70
2019-03-06T11:29:19.539Z,100207.50
2019-03-06T11:31:48.087Z,100198.72
2019-03-06T11:34:16.866Z,100194.59
2019-03-06T11:36:45.049Z,100189.13
2019-03-06T11:39:13.837Z,100188.36
2019-03-06T11:41:42.108Z,100184.95
2019-03-06T11:44:10.394Z,100182.34
2019-03-06T11:46:38.494Z,100174.08
2019-03-06T11:49:06.716Z,100157.16
2019-03-06T11:51:34.944Z,100151.39
2019-03-06T11:54:03.762Z,100147.36
2019-03-06T11:56:32.088Z,100142.13
2019-03-06T11:59:00.331Z,100141.95
2019-03-06T12:01:30.694Z,100125.24
2019-03-06T12:03:59.388Z,100118.45
2019-03-06T12:06:27.692Z,100107.34
2019-03-06T12:08:55.947Z,100107.05
2019-03-06T12:11:25.022Z,100099.09
2019-03-06T12:13:53.308Z,100080.03
2019-03-06T12:16:21.661Z,100082.96
2019-03-06T12:18:49.794Z,100068.91
2019-03-06T12:21:17.884Z,100063.06
2019-03-06T12:23:46.024Z,100064.42
2019-03-06T12:26:14.219Z,100056.45
2019-03-06T12:28:42.819Z,100045.03
2019-03-06T12:31:11.319Z,100053.99
2019-03-06T12:33:39.405Z,100034.71
2019-03-06T12:36:07.666Z,100041.61
2019-03-06T12:38:35.854Z,100038.41
2019-03-06T12:41:04.676Z,100025.84
2019-03-06T12:43:33.153Z,100029.05
2019-03-06T12:46:23.751Z,100015.55
2019-03-06T12:48:59.566Z,100008.06
2019-03-06T12:51:28.856Z,100000.53
2019-03-06T12:53:56.954Z,99998.70
2019-03-06T12:56:25.037Z,99985.87
2019-03-06T12:58:54.057Z,99993.22
2019-03-06T13:01:22.693Z,99984.34
2019-03-06T13:03:50.851Z,99979.28
2019-03-06T13:06:24.510Z,99970.13
2019-03-06T13:08:50.620Z,99964.38
2019-03-06T13:11:19.434Z,99958.79
2019-03-06T13:13:48.259Z,99957.89
2019-03-06T13:16:16.460Z,99955.09
2019-03-06T13:18:44.643Z,99939.48
2019-03-06T13:21:12.854Z,99937.80
2019-03-06T13:23:41.091Z,99928.23
2019-03-06T13:26:10.626Z,99928.83
2019-03-06T13:28:39.124Z,99931.69
2019-03-06T13:31:07.438Z,99923.88
2019-03-06T13:33:51.457Z,99916.02
2019-03-06T13:36:19.539Z,99921.18
2019-03-06T13:38:54.761Z,99917.09
2019-03-06T13:41:17.731Z,99908.33
2019-03-06T13:43:45.973Z,99903.42
2019-03-06T13:46:14.163Z,99900.27
2019-03-06T13:48:42.291Z,99896.80
2019-03-06T13:51:10.462Z,99893.03
2019-03-06T13:53:38.595Z,99887.23
2019-03-06T13:56:07.186Z,99882.10
2019-03-06T13:58:35.619Z,99861.44
2019-03-06T14:01:07.348Z,99861.06
2019-03-06T14:03:35.642Z,99855.63
2019-03-06T14:06:03.743Z,99846.31
2019-03-06T14:08:31.873Z,99845.47
2019-03-06T14:11:00.383Z,99838.22
2019-03-06T14:13:28.491Z,99835.30
2019-03-06T14:15:57.025Z,99824.94
2019-03-06T14:18:25.245Z,99830.98
2019-03-06T14:20:53.566Z,99826.28
2019-03-06T14:23:22.259Z,99811.62
2019-03-06T14:25:52.278Z,99812.63
2019-03-06T14:28:20.465Z,99810.86
2019-03-06T14:30:48.665Z,99805.78
2019-03-06T14:33:16.762Z,99795.02
2019-03-06T14:35:45.063Z,99794.06
2019-03-06T14:38:13.432Z,99780.03
2019-03-06T14:40:43.172Z,99781.37
2019-03-06T14:43:11.404Z,99775.14
2019-03-06T14:45:39.784Z,99772.42
2019-03-06T14:48:07.893Z,99769.70
2019-03-06T14:50:36.198Z,99771.30
2019-03-06T14:53:05.466Z,99760.19
2019-03-06T14:55:34.300Z,99755.30
2019-03-06T14:58:02.860Z,99746.75
2019-03-06T15:00:31.009Z,99745.99
2019-03-06T15:02:59.445Z,99728.63
2019-03-06T15:05:27.755Z,99725.67
2019-03-06T15:07:56.103Z,99724.70
2019-03-06T15:10:24.273Z,99724.31
2019-03-06T15:12:52.401Z,99722.95
2019-03-06T15:15:20.546Z,99715.72
2019-03-06T15:17:49.124Z,99706.55
2019-03-06T15:20:17.976Z,99714.56
2019-03-06T15:22:47.504Z,99712.98
2019-03-06T15:25:18.414Z,99721.58
2019-03-06T15:27:46.691Z,99713.59
2019-03-06T15:30:16.138Z,99720.42
2019-03-06T15:32:44.349Z,99719.45
2019-03-06T15:35:13.291Z,99723.73
2019-03-06T15:37:43.266Z,99721.58
2019-03-06T15:40:16.546Z,99715.12
2019-03-06T15:42:44.808Z,99715.12
2019-03-06T15:45:28.855Z,99716.72
2019-03-06T15:47:59.306Z,99716.69
2019-03-06T15:50:27.358Z,99714.53
2019-03-06T15:52:55.716Z,99708.45
2019-03-06T15:55:24.756Z,99710.00
2019-03-06T15:57:52.862Z,99719.95
2019-03-06T16:00:33.705Z,99710.77
2019-03-06T16:03:04.166Z,99717.39
2019-03-06T16:05:33.542Z,99715.05
2019-03-06T16:08:01.742Z,99713.66
2019-03-06T16:10:30.107Z,99709.31
2019-03-06T16:12:58.226Z,99705.41
2019-03-06T16:15:27.736Z,99700.10
2019-03-06T16:17:57.483Z,99700.48
2019-03-06T16:20:25.712Z,99707.27
2019-03-06T16:22:55.193Z,99690.13
2019-03-06T16:25:24.239Z,99687.59
2019-03-06T16:27:52.438Z,99684.03
2019-03-06T16:30:20.908Z,99681.67
2019-03-06T16:32:49.341Z,99685.36
2019-03-06T16:35:17.729Z,99680.92
2019-03-06T16:37:46.042Z,99686.97
2019-03-06T16:40:16.436Z,99688.53
2019-03-06T16:42:47.180Z,99693.95
2019-03-06T16:45:17.248Z,99690.07
2019-03-06T16:47:45.545Z,99693.50
2019-03-06T16:50:16.383Z,99691.75
2019-03-06T16:52:45.326Z,99685.30
2019-03-06T16:55:15.100Z,99683.94
2019-03-06T16:57:43.171Z,99680.63
2019-03-06T17:00:20.585Z,99677.34
2019-03-06T17:02:49.225Z,99669.87
2019-03-06T17:05:18.763Z,99669.50
2019-03-06T17:07:48.330Z,99668.13
2019-03-06T17:10:18.187Z,99669.71
2019-03-06T17:12:47.005Z,99668.91
2019-03-06T17:15:16.956Z,99665.78
2019-03-06T17:17:45.362Z,99661.09
2019-03-06T17:20:16.897Z,99661.44
2019-03-06T17:22:46.011Z,99654.84
2019-03-06T17:25:14.728Z,99654.25
2019-03-06T17:27:43.206Z,99649.12
2019-03-06T17:30:16.039Z,99647.20
2019-03-06T17:32:58.389Z,99645.84
2019-03-06T17:35:29.528Z,99648.73
2019-03-06T17:37:58.052Z,99643.05
2019-03-06T17:40:26.615Z,99647.12
2019-03-06T17:42:55.177Z,99637.36
2019-03-06T17:45:24.119Z,99646.33
2019-03-06T17:47:52.319Z,99642.05
2019-03-06T17:50:21.576Z,99643.22
2019-03-06T17:52:49.644Z,99635.64
2019-03-06T17:55:17.882Z,99640.09
2019-03-06T17:57:45.961Z,99633.64
2019-03-06T18:00:17.384Z,99625.84
2019-03-06T18:02:45.660Z,99632.64
2019-03-06T18:05:14.410Z,99625.66
2019-03-06T18:07:42.639Z,99619.05
2019-03-06T18:10:12.427Z,99626.42
2019-03-06T18:12:40.523Z,99619.83
2019-03-06T18:15:10.893Z,99622.70
2019-03-06T18:17:39.199Z,99619.02
2019-03-06T18:20:10.737Z,99614.19
2019-03-06T18:22:39.036Z,99613.82
2019-03-06T18:25:11.119Z,99618.50
2019-03-06T18:27:39.613Z,99620.02
2019-03-06T18:30:10.853Z,99612.80
2019-03-06T18:32:39.262Z,99613.60
2019-03-06T18:35:07.833Z,99614.36
2019-03-06T18:37:35.928Z,99609.48
2019-03-06T18:40:05.144Z,99606.56
2019-03-06T18:42:33.558Z,99598.38
2019-03-06T18:45:14.370Z,99591.92
2019-03-06T18:47:42.602Z,99594.07
2019-03-06T18:50:13.787Z,99584.78
2019-03-06T18:52:41.903Z,99581.64
2019-03-06T18:55:10.811Z,99582.41
2019-03-06T18:57:38.940Z,99576.22
2019-03-06T19:00:11.062Z,99568.48
2019-03-06T19:02:39.462Z,99562.69
2019-03-06T19:05:07.996Z,99564.63
2019-03-06T19:07:36.198Z,99553.72
2019-03-06T19:10:05.124Z,99552.77
2019-03-06T19:12:33.397Z,99552.22
2019-03-06T19:15:04.106Z,99554.38
2019-03-06T19:17:32.682Z,99547.39
2019-03-06T19:20:00.746Z,99542.70
2019-03-06T19:22:31.106Z,99548.02
2019-03-06T19:24:58.990Z,99539.83
2019-03-06T19:27:27.226Z,99539.84
2019-03-06T19:29:55.414Z,99540.23
2019-03-06T19:32:23.838Z,99535.37
2019-03-06T19:34:52.012Z,99538.70
2019-03-06T19:37:20.120Z,99541.59
2019-03-06T19:39:48.256Z,99534.22
2019-03-06T19:42:16.610Z,99528.36
2019-03-06T19:44:44.807Z,99521.37
2019-03-06T19:47:12.935Z,99519.03
2019-03-06T19:49:41.339Z,99520.19
2019-03-06T19:52:10.937Z,99523.49
2019-03-06T19:54:39.022Z,99519.22
2019-03-06T19:57:07.459Z,99504.78
2019-03-06T19:59:35.541Z,99501.88
2019-03-06T20:02:03.769Z,99513.55
2019-03-06T20:04:32.232Z,99506.55
2019-03-06T20:07:00.393Z,99502.67
2019-03-06T20:09:28.808Z,99498.76
2019-03-06T20:11:57.274Z,99494.66
2019-03-06T20:14:25.447Z,99491.94
2019-03-06T20:16:53.869Z,99490.18
2019-03-06T20:19:21.953Z,99490.97
2019-03-06T20:21:50.361Z,99483.75
2019-03-06T20:24:18.451Z,99485.69
2019-03-06T20:26:47.088Z,99473.63
2019-03-06T20:29:15.222Z,99474.20
2019-03-06T20:31:43.454Z,99474.41
2019-03-06T20:34:11.556Z,99474.20
2019-03-06T20:36:39.682Z,99476.36
2019-03-06T20:39:08.012Z,99469.32
2019-03-06T20:41:36.222Z,99475.37
2019-03-06T20:44:04.417Z,99475.77
2019-03-06T20:46:32.758Z,99474.59
2019-03-06T20:49:00.858Z,99466.80
2019-03-06T20:51:28.914Z,99466.80
2019-03-06T20:53:57.094Z,99464.26
2019-03-06T20:56:25.250Z,99472.45
2019-03-06T20:58:53.412Z,99468.56
2019-03-06T21:01:22.302Z,99468.56
2019-03-06T21:03:50.468Z,99467.59
2019-03-06T21:06:18.595Z,99464.65
2019-03-06T21:08:46.726Z,99474.20
2019-03-06T21:11:15.130Z,99464.47
2019-03-06T21:13:43.537Z,99456.68
2019-03-06T21:16:11.680Z,99447.13
2019-03-06T21:18:40.049Z,99450.25
2019-03-06T21:21:08.320Z,99452.98
2019-03-06T21:23:36.507Z,99444.58
2019-03-06T21:26:04.910Z,99440.88
2019-03-06T21:28:33.051Z,99440.70
2019-03-06T21:31:01.279Z,99440.69
2019-03-06T21:33:29.433Z,99433.85
2019-03-06T21:35:57.743Z,99442.23
2019-03-06T21:38:25.990Z,99442.05
2019-03-06T21:40:54.188Z,99438.50
2019-03-06T21:43:22.855Z,99440.28
2019-03-06T21:45:50.977Z,99445.53
2019-03-06T21:48:19.113Z,99445.35
2019-03-06T21:50:47.246Z,99433.05
2019-03-06T21:53:15.422Z,99437.73
2019-03-06T21:55:43.663Z,99434.02
2019-03-06T21:58:11.912Z,99434.23
2019-03-06T22:00:40.423Z,99438.50
2019-03-06T22:03:09.452Z,99439.30
2019-03-06T22:05:37.732Z,99429.92
2019-03-06T22:08:06.741Z,99427.97
2019-03-06T22:10:34.906Z,99433.64
2019-03-06T22:13:03.205Z,99428.36
2019-03-06T22:15:31.344Z,99428.95
2019-03-06T22:17:59.833Z,99429.56
2019-03-06T22:20:28.152Z,99423.13
2019-03-06T22:22:56.512Z,99422.50
2019-03-06T22:25:24.759Z,99427.41
2019-03-06T22:27:52.912Z,99419.59
2019-03-06T22:30:22.849Z,99422.70
2019-03-06T22:32:51.369Z,99415.70
2019-03-06T22:35:19.523Z,99407.10
2019-03-06T22:37:47.747Z,99412.19
2019-03-06T22:40:16.694Z,99412.20
2019-03-06T22:42:44.941Z,99407.70
2019-03-06T22:45:14.003Z,99406.95
2019-03-06T22:47:42.535Z,99401.66
2019-03-06T22:50:12.224Z,99394.24
2019-03-06T22:52:40.350Z,99392.31
2019-03-06T22:55:11.448Z,99388.60
2019-03-06T22:57:39.749Z,99386.64
2019-03-06T23:00:45.954Z,99385.88
2019-03-06T23:03:14.994Z,99385.88
2019-03-06T23:05:43.069Z,99377.69
2019-03-06T23:08:11.930Z,99373.00
2019-03-06T23:10:40.094Z,99371.22
2019-03-06T23:13:09.359Z,99365.78
2019-03-06T23:15:39.330Z,99363.44
2019-03-06T23:18:07.500Z,99362.06
2019-03-06T23:20:35.811Z,99367.14
2019-03-06T23:23:03.886Z,99361.67
2019-03-06T23:25:32.002Z,99363.28
2019-03-06T23:28:00.036Z,99359.73
2019-03-06T23:30:28.383Z,99358.20
2019-03-06T23:32:56.523Z,99358.42
2019-03-06T23:35:24.841Z,99357.39
2019-03-06T23:37:52.906Z,99347.48
2019-03-06T23:40:21.033Z,99346.67
2019-03-06T23:42:49.065Z,99348.41
2019-03-06T23:45:19.034Z,99348.02
2019-03-06T23:47:47.632Z,99351.95
2019-03-06T23:51:00.306Z,99342.40
2019-03-06T23:53:59.745Z,99339.46
2019-03-06T23:56:28.000Z,99330.55
2019-03-06T23:58:56.095Z,99337.75
